sensor_id;sensor_type;location;lat;lon;timestamp;temperature;humidity
67054;SHT31;53960;51.826;5.850;2023-06-05T00:02:03;14.59;73.86
67054;SHT31;53960;51.826;5.850;2023-06-05T00:04:29;14.40;74.36
67054;SHT31;53960;51.826;5.850;2023-06-05T00:06:54;14.42;74.38
67054;SHT31;53960;51.826;5.850;2023-06-05T00:09:21;14.48;74.24
67054;SHT31;53960;51.826;5.850;2023-06-05T00:11:47;14.53;74.03
67054;SHT31;53960;51.826;5.850;2023-06-05T00:14:12;14.42;74.39
67054;SHT31;53960;51.826;5.850;2023-06-05T00:16:37;14.39;74.54
67054;SHT31;53960;51.826;5.850;2023-06-05T00:19:03;14.26;74.77
67054;SHT31;53960;51.826;5.850;2023-06-05T00:21:29;14.26;74.89
67054;SHT31;53960;51.826;5.850;2023-06-05T00:23:54;14.26;74.89
67054;SHT31;53960;51.826;5.850;2023-06-05T00:26:20;14.26;74.96
67054;SHT31;53960;51.826;5.850;2023-06-05T00:28:46;14.26;75.01
67054;SHT31;53960;51.826;5.850;2023-06-05T00:31:11;14.28;75.05
67054;SHT31;53960;51.826;5.850;2023-06-05T00:33:38;14.24;75.11
67054;SHT31;53960;51.826;5.850;2023-06-05T00:36:04;14.21;75.05
67054;SHT31;53960;51.826;5.850;2023-06-05T00:38:29;14.19;75.14
67054;SHT31;53960;51.826;5.850;2023-06-05T00:40:54;14.18;75.29
67054;SHT31;53960;51.826;5.850;2023-06-05T00:43:20;14.07;75.59
67054;SHT31;53960;51.826;5.850;2023-06-05T00:45:45;14.08;75.50
67054;SHT31;53960;51.826;5.850;2023-06-05T00:48:11;14.02;75.75
67054;SHT31;53960;51.826;5.850;2023-06-05T00:50:37;14.04;75.70
67054;SHT31;53960;51.826;5.850;2023-06-05T00:53:03;14.08;75.67
67054;SHT31;53960;51.826;5.850;2023-06-05T00:55:29;14.01;75.79
67054;SHT31;53960;51.826;5.850;2023-06-05T00:57:55;13.97;75.94
67054;SHT31;53960;51.826;5.850;2023-06-05T01:00:21;14.01;75.88
67054;SHT31;53960;51.826;5.850;2023-06-05T01:02:46;13.90;76.23
67054;SHT31;53960;51.826;5.850;2023-06-05T01:05:13;13.84;76.39
67054;SHT31;53960;51.826;5.850;2023-06-05T01:07:39;13.75;76.71
67054;SHT31;53960;51.826;5.850;2023-06-05T01:10:06;13.67;76.81
67054;SHT31;53960;51.826;5.850;2023-06-05T01:15:17;13.73;76.92
67054;SHT31;53960;51.826;5.850;2023-06-05T01:17:44;13.75;76.73
67054;SHT31;53960;51.826;5.850;2023-06-05T01:20:12;13.75;76.78
67054;SHT31;53960;51.826;5.850;2023-06-05T01:22:37;13.80;76.60
67054;SHT31;53960;51.826;5.850;2023-06-05T01:25:06;13.71;77.06
67054;SHT31;53960;51.826;5.850;2023-06-05T01:27:48;13.66;77.02
67054;SHT31;53960;51.826;5.850;2023-06-05T01:30:26;13.74;76.81
67054;SHT31;53960;51.826;5.850;2023-06-05T01:32:57;13.74;76.93
67054;SHT31;53960;51.826;5.850;2023-06-05T01:35:29;13.73;76.83
67054;SHT31;53960;51.826;5.850;2023-06-05T01:37:58;13.68;76.98
67054;SHT31;53960;51.826;5.850;2023-06-05T01:40:25;13.63;77.10
67054;SHT31;53960;51.826;5.850;2023-06-05T01:42:52;13.66;77.09
67054;SHT31;53960;51.826;5.850;2023-06-05T01:45:19;13.56;77.42
67054;SHT31;53960;51.826;5.850;2023-06-05T01:47:45;13.54;77.40
67054;SHT31;53960;51.826;5.850;2023-06-05T01:50:13;13.54;77.43
67054;SHT31;53960;51.826;5.850;2023-06-05T01:52:39;13.51;77.64
67054;SHT31;53960;51.826;5.850;2023-06-05T01:55:08;13.50;77.52
67054;SHT31;53960;51.826;5.850;2023-06-05T01:57:40;13.51;77.62
67054;SHT31;53960;51.826;5.850;2023-06-05T02:00:06;13.44;77.74
67054;SHT31;53960;51.826;5.850;2023-06-05T02:02:36;13.46;77.74
67054;SHT31;53960;51.826;5.850;2023-06-05T02:05:02;13.44;77.70
67054;SHT31;53960;51.826;5.850;2023-06-05T02:07:27;13.57;77.54
67054;SHT31;53960;51.826;5.850;2023-06-05T02:09:53;13.40;77.71
67054;SHT31;53960;51.826;5.850;2023-06-05T02:12:18;13.33;78.19
67054;SHT31;53960;51.826;5.850;2023-06-05T02:14:44;13.29;78.36
67054;SHT31;53960;51.826;5.850;2023-06-05T02:17:12;13.20;78.51
67054;SHT31;53960;51.826;5.850;2023-06-05T02:19:39;13.23;78.44
67054;SHT31;53960;51.826;5.850;2023-06-05T02:22:05;13.16;78.76
67054;SHT31;53960;51.826;5.850;2023-06-05T02:24:31;13.09;78.87
67054;SHT31;53960;51.826;5.850;2023-06-05T02:26:56;13.12;78.79
67054;SHT31;53960;51.826;5.850;2023-06-05T02:29:22;13.10;78.78
67054;SHT31;53960;51.826;5.850;2023-06-05T02:31:48;12.98;79.15
67054;SHT31;53960;51.826;5.850;2023-06-05T02:34:13;12.92;79.42
67054;SHT31;53960;51.826;5.850;2023-06-05T02:36:38;12.92;79.47
67054;SHT31;53960;51.826;5.850;2023-06-05T02:39:04;13.01;79.17
67054;SHT31;53960;51.826;5.850;2023-06-05T02:41:30;13.02;79.07
67054;SHT31;53960;51.826;5.850;2023-06-05T02:43:55;13.02;78.96
67054;SHT31;53960;51.826;5.850;2023-06-05T02:46:21;12.84;79.49
67054;SHT31;53960;51.826;5.850;2023-06-05T02:48:49;12.92;79.53
67054;SHT31;53960;51.826;5.850;2023-06-05T02:51:15;12.78;79.73
67054;SHT31;53960;51.826;5.850;2023-06-05T02:53:40;12.72;80.07
67054;SHT31;53960;51.826;5.850;2023-06-05T02:56:05;12.65;80.27
67054;SHT31;53960;51.826;5.850;2023-06-05T02:58:31;12.68;80.30
67054;SHT31;53960;51.826;5.850;2023-06-05T03:01:00;12.71;80.14
67054;SHT31;53960;51.826;5.850;2023-06-05T03:03:31;12.79;79.82
67054;SHT31;53960;51.826;5.850;2023-06-05T03:06:01;12.82;79.85
67054;SHT31;53960;51.826;5.850;2023-06-05T03:08:33;12.89;79.49
67054;SHT31;53960;51.826;5.850;2023-06-05T03:10:59;12.91;79.40
67054;SHT31;53960;51.826;5.850;2023-06-05T03:13:25;12.85;79.56
67054;SHT31;53960;51.826;5.850;2023-06-05T03:15:50;12.75;79.75
67054;SHT31;53960;51.826;5.850;2023-06-05T03:18:21;12.72;79.93
67054;SHT31;53960;51.826;5.850;2023-06-05T03:20:47;12.68;79.98
67054;SHT31;53960;51.826;5.850;2023-06-05T03:23:13;12.71;79.95
67054;SHT31;53960;51.826;5.850;2023-06-05T03:25:38;12.79;79.72
67054;SHT31;53960;51.826;5.850;2023-06-05T03:28:03;12.74;79.80
67054;SHT31;53960;51.826;5.850;2023-06-05T03:30:29;12.55;80.35
67054;SHT31;53960;51.826;5.850;2023-06-05T03:32:54;12.61;80.14
67054;SHT31;53960;51.826;5.850;2023-06-05T03:35:19;12.69;79.75
67054;SHT31;53960;51.826;5.850;2023-06-05T03:37:45;12.77;79.67
67054;SHT31;53960;51.826;5.850;2023-06-05T03:40:11;12.81;79.63
67054;SHT31;53960;51.826;5.850;2023-06-05T03:42:37;12.72;79.71
67054;SHT31;53960;51.826;5.850;2023-06-05T03:45:03;12.64;80.12
67054;SHT31;53960;51.826;5.850;2023-06-05T03:47:28;12.55;80.26
67054;SHT31;53960;51.826;5.850;2023-06-05T03:49:54;12.52;80.43
67054;SHT31;53960;51.826;5.850;2023-06-05T03:52:21;12.50;80.64
67054;SHT31;53960;51.826;5.850;2023-06-05T03:54:49;12.45;80.74
67054;SHT31;53960;51.826;5.850;2023-06-05T03:57:19;12.34;81.05
67054;SHT31;53960;51.826;5.850;2023-06-05T03:59:45;12.45;80.83
67054;SHT31;53960;51.826;5.850;2023-06-05T04:02:12;12.50;80.66
67054;SHT31;53960;51.826;5.850;2023-06-05T04:04:37;12.36;81.01
67054;SHT31;53960;51.826;5.850;2023-06-05T04:07:03;12.44;80.97
67054;SHT31;53960;51.826;5.850;2023-06-05T04:09:28;12.47;80.84
67054;SHT31;53960;51.826;5.850;2023-06-05T04:11:54;12.40;81.04
67054;SHT31;53960;51.826;5.850;2023-06-05T04:14:19;12.33;81.05
67054;SHT31;53960;51.826;5.850;2023-06-05T04:16:45;12.36;81.22
67054;SHT31;53960;51.826;5.850;2023-06-05T04:19:11;12.29;81.36
67054;SHT31;53960;51.826;5.850;2023-06-05T04:21:37;12.37;81.13
67054;SHT31;53960;51.826;5.850;2023-06-05T04:24:04;12.41;81.00
67054;SHT31;53960;51.826;5.850;2023-06-05T04:26:38;12.47;80.86
67054;SHT31;53960;51.826;5.850;2023-06-05T04:29:04;12.45;80.88
67054;SHT31;53960;51.826;5.850;2023-06-05T04:31:31;12.37;81.04
67054;SHT31;53960;51.826;5.850;2023-06-05T04:33:57;12.42;81.09
67054;SHT31;53960;51.826;5.850;2023-06-05T04:36:25;12.44;81.16
67054;SHT31;53960;51.826;5.850;2023-06-05T04:38:50;12.38;81.23
67054;SHT31;53960;51.826;5.850;2023-06-05T04:41:16;12.34;81.39
67054;SHT31;53960;51.826;5.850;2023-06-05T04:43:41;12.38;81.33
67054;SHT31;53960;51.826;5.850;2023-06-05T04:46:07;12.41;81.11
67054;SHT31;53960;51.826;5.850;2023-06-05T04:48:33;12.29;81.58
67054;SHT31;53960;51.826;5.850;2023-06-05T04:50:59;12.30;81.77
67054;SHT31;53960;51.826;5.850;2023-06-05T04:53:25;12.31;81.71
67054;SHT31;53960;51.826;5.850;2023-06-05T04:55:53;12.33;81.77
67054;SHT31;53960;51.826;5.850;2023-06-05T04:58:18;12.33;81.49
67054;SHT31;53960;51.826;5.850;2023-06-05T05:00:44;12.29;81.59
67054;SHT31;53960;51.826;5.850;2023-06-05T05:03:10;12.30;81.63
67054;SHT31;53960;51.826;5.850;2023-06-05T05:05:38;12.24;82.02
67054;SHT31;53960;51.826;5.850;2023-06-05T05:08:04;12.33;81.64
67054;SHT31;53960;51.826;5.850;2023-06-05T05:10:30;12.41;81.48
67054;SHT31;53960;51.826;5.850;2023-06-05T05:12:56;12.40;81.34
67054;SHT31;53960;51.826;5.850;2023-06-05T05:15:21;12.45;81.39
67054;SHT31;53960;51.826;5.850;2023-06-05T05:17:46;12.51;81.34
67054;SHT31;53960;51.826;5.850;2023-06-05T05:20:12;12.55;81.24
67054;SHT31;53960;51.826;5.850;2023-06-05T05:22:38;12.71;80.62
67054;SHT31;53960;51.826;5.850;2023-06-05T05:25:03;12.72;80.47
67054;SHT31;53960;51.826;5.850;2023-06-05T05:27:29;12.65;80.72
67054;SHT31;53960;51.826;5.850;2023-06-05T05:29:54;12.81;80.45
67054;SHT31;53960;51.826;5.850;2023-06-05T05:32:19;12.81;80.29
67054;SHT31;53960;51.826;5.850;2023-06-05T05:34:45;12.88;79.80
67054;SHT31;53960;51.826;5.850;2023-06-05T05:37:11;12.95;79.61
67054;SHT31;53960;51.826;5.850;2023-06-05T05:39:36;13.01;79.56
67054;SHT31;53960;51.826;5.850;2023-06-05T05:42:02;12.96;79.68
67054;SHT31;53960;51.826;5.850;2023-06-05T05:44:27;12.96;79.89
67054;SHT31;53960;51.826;5.850;2023-06-05T05:46:53;12.92;79.83
67054;SHT31;53960;51.826;5.850;2023-06-05T05:49:18;12.79;79.76
67054;SHT31;53960;51.826;5.850;2023-06-05T05:51:43;12.74;80.11
67054;SHT31;53960;51.826;5.850;2023-06-05T05:54:09;12.81;79.89
67054;SHT31;53960;51.826;5.850;2023-06-05T05:56:34;12.85;79.83
67054;SHT31;53960;51.826;5.850;2023-06-05T05:59:01;12.88;79.76
67054;SHT31;53960;51.826;5.850;2023-06-05T06:01:27;12.99;79.59
67054;SHT31;53960;51.826;5.850;2023-06-05T06:03:53;13.13;79.15
67054;SHT31;53960;51.826;5.850;2023-06-05T06:06:19;13.09;78.82
67054;SHT31;53960;51.826;5.850;2023-06-05T06:08:45;13.12;78.95
67054;SHT31;53960;51.826;5.850;2023-06-05T06:11:10;13.08;79.16
67054;SHT31;53960;51.826;5.850;2023-06-05T06:13:36;13.19;78.93
67054;SHT31;53960;51.826;5.850;2023-06-05T06:16:02;13.19;78.82
67054;SHT31;53960;51.826;5.850;2023-06-05T06:18:27;13.23;78.52
67054;SHT31;53960;51.826;5.850;2023-06-05T06:20:53;13.38;78.12
67054;SHT31;53960;51.826;5.850;2023-06-05T06:23:19;13.42;78.21
67054;SHT31;53960;51.826;5.850;2023-06-05T06:25:44;13.47;78.46
67054;SHT31;53960;51.826;5.850;2023-06-05T06:28:09;13.47;78.21
67054;SHT31;53960;51.826;5.850;2023-06-05T06:30:35;13.46;78.25
67054;SHT31;53960;51.826;5.850;2023-06-05T06:33:01;13.60;77.79
67054;SHT31;53960;51.826;5.850;2023-06-05T06:35:29;13.50;77.65
67054;SHT31;53960;51.826;5.850;2023-06-05T06:37:55;13.54;77.66
67054;SHT31;53960;51.826;5.850;2023-06-05T06:40:21;13.67;77.77
67054;SHT31;53960;51.826;5.850;2023-06-05T06:42:47;13.77;77.64
67054;SHT31;53960;51.826;5.850;2023-06-05T06:45:12;13.87;77.23
67054;SHT31;53960;51.826;5.850;2023-06-05T06:47:38;14.01;76.97
67054;SHT31;53960;51.826;5.850;2023-06-05T06:50:04;14.08;76.34
67054;SHT31;53960;51.826;5.850;2023-06-05T06:52:30;14.05;76.40
67054;SHT31;53960;51.826;5.850;2023-06-05T06:54:55;14.07;76.05
67054;SHT31;53960;51.826;5.850;2023-06-05T06:57:21;14.11;76.14
67054;SHT31;53960;51.826;5.850;2023-06-05T06:59:47;14.26;75.65
67054;SHT31;53960;51.826;5.850;2023-06-05T07:02:22;14.30;75.31
67054;SHT31;53960;51.826;5.850;2023-06-05T07:04:48;14.40;74.97
67054;SHT31;53960;51.826;5.850;2023-06-05T07:07:16;14.42;75.18
67054;SHT31;53960;51.826;5.850;2023-06-05T07:09:43;14.38;75.15
67054;SHT31;53960;51.826;5.850;2023-06-05T07:12:10;14.45;74.65
67054;SHT31;53960;51.826;5.850;2023-06-05T07:14:36;14.55;74.73
67054;SHT31;53960;51.826;5.850;2023-06-05T07:17:02;14.66;74.82
67054;SHT31;53960;51.826;5.850;2023-06-05T07:19:28;14.69;74.40
67054;SHT31;53960;51.826;5.850;2023-06-05T07:21:55;14.80;74.10
67054;SHT31;53960;51.826;5.850;2023-06-05T07:24:21;14.94;74.20
67054;SHT31;53960;51.826;5.850;2023-06-05T07:26:46;15.01;74.06
67054;SHT31;53960;51.826;5.850;2023-06-05T07:29:11;15.03;73.64
67054;SHT31;53960;51.826;5.850;2023-06-05T07:31:37;15.00;73.80
67054;SHT31;53960;51.826;5.850;2023-06-05T07:34:04;15.10;74.03
67054;SHT31;53960;51.826;5.850;2023-06-05T07:36:30;15.12;73.88
67054;SHT31;53960;51.826;5.850;2023-06-05T07:38:55;15.07;74.03
67054;SHT31;53960;51.826;5.850;2023-06-05T07:41:21;15.23;74.06
67054;SHT31;53960;51.826;5.850;2023-06-05T07:43:46;15.25;73.67
67054;SHT31;53960;51.826;5.850;2023-06-05T07:46:12;15.27;73.58
67054;SHT31;53960;51.826;5.850;2023-06-05T07:48:39;15.23;73.44
67054;SHT31;53960;51.826;5.850;2023-06-05T07:51:04;15.28;73.46
67054;SHT31;53960;51.826;5.850;2023-06-05T07:53:30;15.42;73.33
67054;SHT31;53960;51.826;5.850;2023-06-05T07:55:55;15.56;73.34
67054;SHT31;53960;51.826;5.850;2023-06-05T07:58:21;15.65;72.60
67054;SHT31;53960;51.826;5.850;2023-06-05T08:00:46;15.82;72.52
67054;SHT31;53960;51.826;5.850;2023-06-05T08:03:16;15.92;72.19
67054;SHT31;53960;51.826;5.850;2023-06-05T08:05:48;16.02;72.26
67054;SHT31;53960;51.826;5.850;2023-06-05T08:08:13;16.06;72.18
67054;SHT31;53960;51.826;5.850;2023-06-05T08:10:39;16.07;72.45
67054;SHT31;53960;51.826;5.850;2023-06-05T08:13:05;16.13;71.54
67054;SHT31;53960;51.826;5.850;2023-06-05T08:15:30;16.30;71.78
67054;SHT31;53960;51.826;5.850;2023-06-05T08:17:55;16.37;71.23
67054;SHT31;53960;51.826;5.850;2023-06-05T08:20:21;16.21;71.05
67054;SHT31;53960;51.826;5.850;2023-06-05T08:22:46;16.36;71.74
67054;SHT31;53960;51.826;5.850;2023-06-05T08:25:12;16.53;71.72
67054;SHT31;53960;51.826;5.850;2023-06-05T08:27:37;16.43;70.81
67054;SHT31;53960;51.826;5.850;2023-06-05T08:30:03;16.53;71.14
67054;SHT31;53960;51.826;5.850;2023-06-05T08:32:28;16.63;70.74
67054;SHT31;53960;51.826;5.850;2023-06-05T08:34:54;16.63;70.75
67054;SHT31;53960;51.826;5.850;2023-06-05T08:37:19;16.76;70.94
67054;SHT31;53960;51.826;5.850;2023-06-05T08:39:45;16.85;70.66
67054;SHT31;53960;51.826;5.850;2023-06-05T08:42:12;16.78;70.28
67054;SHT31;53960;51.826;5.850;2023-06-05T08:44:40;16.81;70.68
67054;SHT31;53960;51.826;5.850;2023-06-05T08:47:06;16.94;70.50
67054;SHT31;53960;51.826;5.850;2023-06-05T08:49:37;17.01;70.42
67054;SHT31;53960;51.826;5.850;2023-06-05T08:52:05;17.05;70.29
67054;SHT31;53960;51.826;5.850;2023-06-05T08:54:39;17.16;70.09
67054;SHT31;53960;51.826;5.850;2023-06-05T08:57:06;17.25;69.96
67054;SHT31;53960;51.826;5.850;2023-06-05T08:59:32;17.33;70.08
67054;SHT31;53960;51.826;5.850;2023-06-05T09:01:57;17.46;69.91
67054;SHT31;53960;51.826;5.850;2023-06-05T09:04:23;17.50;69.17
67054;SHT31;53960;51.826;5.850;2023-06-05T09:06:50;17.57;69.29
67054;SHT31;53960;51.826;5.850;2023-06-05T09:09:18;17.71;68.47
67054;SHT31;53960;51.826;5.850;2023-06-05T09:11:44;17.75;68.26
67054;SHT31;53960;51.826;5.850;2023-06-05T09:14:09;17.83;68.45
67054;SHT31;53960;51.826;5.850;2023-06-05T09:16:40;17.90;68.39
67054;SHT31;53960;51.826;5.850;2023-06-05T09:19:08;17.85;68.07
67054;SHT31;53960;51.826;5.850;2023-06-05T09:21:33;17.90;68.53
67054;SHT31;53960;51.826;5.850;2023-06-05T09:24:13;18.02;68.34
67054;SHT31;53960;51.826;5.850;2023-06-05T09:27:10;18.26;68.25
67054;SHT31;53960;51.826;5.850;2023-06-05T09:29:38;18.41;68.14
67054;SHT31;53960;51.826;5.850;2023-06-05T09:34:31;18.31;67.05
67054;SHT31;53960;51.826;5.850;2023-06-05T09:36:58;18.42;67.01
67054;SHT31;53960;51.826;5.850;2023-06-05T09:39:24;18.43;66.60
67054;SHT31;53960;51.826;5.850;2023-06-05T09:41:51;18.52;66.70
67054;SHT31;53960;51.826;5.850;2023-06-05T09:44:20;18.67;66.95
67054;SHT31;53960;51.826;5.850;2023-06-05T09:49:18;18.97;66.40
67054;SHT31;53960;51.826;5.850;2023-06-05T09:51:45;19.03;66.38
67054;SHT31;53960;51.826;5.850;2023-06-05T09:54:12;19.14;65.32
67054;SHT31;53960;51.826;5.850;2023-06-05T09:56:39;19.00;65.15
67054;SHT31;53960;51.826;5.850;2023-06-05T09:59:05;19.07;65.71
67054;SHT31;53960;51.826;5.850;2023-06-05T10:01:33;19.25;65.91
67054;SHT31;53960;51.826;5.850;2023-06-05T10:04:05;19.35;66.60
67054;SHT31;53960;51.826;5.850;2023-06-05T10:06:33;19.36;65.42
67054;SHT31;53960;51.826;5.850;2023-06-05T10:08:58;19.38;65.32
67054;SHT31;53960;51.826;5.850;2023-06-05T10:11:26;19.52;64.61
67054;SHT31;53960;51.826;5.850;2023-06-05T10:13:52;19.73;65.48
67054;SHT31;53960;51.826;5.850;2023-06-05T10:16:18;19.73;63.89
67054;SHT31;53960;51.826;5.850;2023-06-05T10:18:48;19.66;63.87
67054;SHT31;53960;51.826;5.850;2023-06-05T10:21:17;19.73;64.35
67054;SHT31;53960;51.826;5.850;2023-06-05T10:24:06;19.75;64.61
67054;SHT31;53960;51.826;5.850;2023-06-05T10:33:00;19.99;63.66
67054;SHT31;53960;51.826;5.850;2023-06-05T10:35:45;20.08;64.02
67054;SHT31;53960;51.826;5.850;2023-06-05T10:38:25;20.29;63.75
67054;SHT31;53960;51.826;5.850;2023-06-05T10:40:53;20.37;63.52
67054;SHT31;53960;51.826;5.850;2023-06-05T10:45:56;20.33;63.04
67054;SHT31;53960;51.826;5.850;2023-06-05T10:48:21;20.40;63.19
67054;SHT31;53960;51.826;5.850;2023-06-05T10:51:59;20.48;63.12
67054;SHT31;53960;51.826;5.850;2023-06-05T10:59:19;20.68;60.46
67054;SHT31;53960;51.826;5.850;2023-06-05T11:10:04;20.85;62.01
67054;SHT31;53960;51.826;5.850;2023-06-05T11:15:01;21.22;62.23
67054;SHT31;53960;51.826;5.850;2023-06-05T11:19:56;21.13;60.37
67054;SHT31;53960;51.826;5.850;2023-06-05T11:22:22;21.22;61.00
67054;SHT31;53960;51.826;5.850;2023-06-05T11:27:45;21.30;60.57
67054;SHT31;53960;51.826;5.850;2023-06-05T11:30:22;21.29;61.16
67054;SHT31;53960;51.826;5.850;2023-06-05T11:32:49;21.51;61.35
67054;SHT31;53960;51.826;5.850;2023-06-05T11:35:20;21.53;59.51
67054;SHT31;53960;51.826;5.850;2023-06-05T11:37:45;21.68;60.63
67054;SHT31;53960;51.826;5.850;2023-06-05T11:40:23;21.81;59.86
67054;SHT31;53960;51.826;5.850;2023-06-05T11:42:49;21.88;60.27
67054;SHT31;53960;51.826;5.850;2023-06-05T11:45:14;21.93;59.61
67054;SHT31;53960;51.826;5.850;2023-06-05T11:47:40;22.00;58.60
67054;SHT31;53960;51.826;5.850;2023-06-05T11:50:10;22.01;57.59
67054;SHT31;53960;51.826;5.850;2023-06-05T11:52:36;22.17;59.04
67054;SHT31;53960;51.826;5.850;2023-06-05T11:55:15;22.24;58.49
67054;SHT31;53960;51.826;5.850;2023-06-05T11:57:42;22.28;56.85
67054;SHT31;53960;51.826;5.850;2023-06-05T12:00:09;22.34;57.06
67054;SHT31;53960;51.826;5.850;2023-06-05T12:02:36;22.36;56.06
67054;SHT31;53960;51.826;5.850;2023-06-05T12:05:02;22.34;56.19
67054;SHT31;53960;51.826;5.850;2023-06-05T12:07:31;22.39;56.10
67054;SHT31;53960;51.826;5.850;2023-06-05T12:10:01;22.52;56.47
67054;SHT31;53960;51.826;5.850;2023-06-05T12:12:29;22.55;55.74
67054;SHT31;53960;51.826;5.850;2023-06-05T12:14:54;22.67;56.08
67054;SHT31;53960;51.826;5.850;2023-06-05T12:17:21;22.70;55.52
67054;SHT31;53960;51.826;5.850;2023-06-05T12:19:54;22.72;55.09
67054;SHT31;53960;51.826;5.850;2023-06-05T12:22:19;22.79;55.24
67054;SHT31;53960;51.826;5.850;2023-06-05T12:24:46;22.72;54.10
67054;SHT31;53960;51.826;5.850;2023-06-05T12:27:11;22.76;55.13
67054;SHT31;53960;51.826;5.850;2023-06-05T12:29:38;22.82;55.08
67054;SHT31;53960;51.826;5.850;2023-06-05T12:32:20;22.87;56.01
67054;SHT31;53960;51.826;5.850;2023-06-05T12:34:47;23.02;55.47
67054;SHT31;53960;51.826;5.850;2023-06-05T12:37:29;23.03;55.70
67054;SHT31;53960;51.826;5.850;2023-06-05T12:39:57;23.03;54.55
67054;SHT31;53960;51.826;5.850;2023-06-05T12:42:24;23.08;53.85
67054;SHT31;53960;51.826;5.850;2023-06-05T12:44:49;23.00;53.88
67054;SHT31;53960;51.826;5.850;2023-06-05T12:47:15;22.99;53.61
67054;SHT31;53960;51.826;5.850;2023-06-05T12:49:41;23.14;53.01
67054;SHT31;53960;51.826;5.850;2023-06-05T12:52:07;23.23;52.52
67054;SHT31;53960;51.826;5.850;2023-06-05T12:54:35;23.25;53.07
67054;SHT31;53960;51.826;5.850;2023-06-05T12:57:01;23.35;51.44
67054;SHT31;53960;51.826;5.850;2023-06-05T12:59:26;23.47;53.47
67054;SHT31;53960;51.826;5.850;2023-06-05T13:01:51;23.52;50.74
67054;SHT31;53960;51.826;5.850;2023-06-05T13:04:17;23.47;52.09
67054;SHT31;53960;51.826;5.850;2023-06-05T13:06:42;23.48;52.61
67054;SHT31;53960;51.826;5.850;2023-06-05T13:09:08;23.57;52.17
67054;SHT31;53960;51.826;5.850;2023-06-05T13:11:34;23.52;51.98
67054;SHT31;53960;51.826;5.850;2023-06-05T13:13:59;23.64;50.54
67054;SHT31;53960;51.826;5.850;2023-06-05T13:16:25;23.64;50.11
67054;SHT31;53960;51.826;5.850;2023-06-05T13:18:51;23.72;50.75
67054;SHT31;53960;51.826;5.850;2023-06-05T13:21:16;23.86;51.02
67054;SHT31;53960;51.826;5.850;2023-06-05T13:23:42;23.93;49.66
67054;SHT31;53960;51.826;5.850;2023-06-05T13:26:07;23.82;50.07
67054;SHT31;53960;51.826;5.850;2023-06-05T13:28:33;23.79;50.25
67054;SHT31;53960;51.826;5.850;2023-06-05T13:30:58;23.83;50.57
67054;SHT31;53960;51.826;5.850;2023-06-05T13:33:23;23.76;50.40
67054;SHT31;53960;51.826;5.850;2023-06-05T13:35:50;23.83;50.47
67054;SHT31;53960;51.826;5.850;2023-06-05T13:38:15;23.85;50.00
67054;SHT31;53960;51.826;5.850;2023-06-05T13:40:41;23.85;49.33
67054;SHT31;53960;51.826;5.850;2023-06-05T13:43:08;23.75;49.86
67054;SHT31;53960;51.826;5.850;2023-06-05T13:45:33;23.73;49.32
67054;SHT31;53960;51.826;5.850;2023-06-05T13:47:58;23.79;48.61
67054;SHT31;53960;51.826;5.850;2023-06-05T13:50:24;23.93;49.27
67054;SHT31;53960;51.826;5.850;2023-06-05T13:52:49;24.06;50.11
67054;SHT31;53960;51.826;5.850;2023-06-05T13:55:15;24.08;48.82
67054;SHT31;53960;51.826;5.850;2023-06-05T13:57:40;24.01;48.75
67054;SHT31;53960;51.826;5.850;2023-06-05T14:00:06;24.05;48.54
67054;SHT31;53960;51.826;5.850;2023-06-05T14:02:32;24.09;48.31
67054;SHT31;53960;51.826;5.850;2023-06-05T14:04:58;24.09;47.41
67054;SHT31;53960;51.826;5.850;2023-06-05T14:07:23;24.13;46.93
67054;SHT31;53960;51.826;5.850;2023-06-05T14:09:49;24.17;47.57
67054;SHT31;53960;51.826;5.850;2023-06-05T14:12:14;24.09;47.48
67054;SHT31;53960;51.826;5.850;2023-06-05T14:14:41;24.12;48.16
67054;SHT31;53960;51.826;5.850;2023-06-05T14:17:06;24.06;46.43
67054;SHT31;53960;51.826;5.850;2023-06-05T14:19:32;23.96;46.95
67054;SHT31;53960;51.826;5.850;2023-06-05T14:21:57;23.95;46.18
67054;SHT31;53960;51.826;5.850;2023-06-05T14:24:23;24.06;46.57
67054;SHT31;53960;51.826;5.850;2023-06-05T14:26:49;24.14;46.36
67054;SHT31;53960;51.826;5.850;2023-06-05T14:29:14;24.17;46.51
67054;SHT31;53960;51.826;5.850;2023-06-05T14:31:40;24.12;46.53
67054;SHT31;53960;51.826;5.850;2023-06-05T14:34:05;24.17;46.43
67054;SHT31;53960;51.826;5.850;2023-06-05T14:36:31;24.27;45.84
67054;SHT31;53960;51.826;5.850;2023-06-05T14:38:56;24.20;44.78
67054;SHT31;53960;51.826;5.850;2023-06-05T14:41:22;24.23;44.24
67054;SHT31;53960;51.826;5.850;2023-06-05T14:43:48;24.36;44.89
67054;SHT31;53960;51.826;5.850;2023-06-05T14:46:13;24.47;44.98
67054;SHT31;53960;51.826;5.850;2023-06-05T14:48:39;24.49;44.42
67054;SHT31;53960;51.826;5.850;2023-06-05T14:51:04;24.32;45.12
67054;SHT31;53960;51.826;5.850;2023-06-05T14:53:29;24.36;44.55
67054;SHT31;53960;51.826;5.850;2023-06-05T14:55:57;24.29;43.83
67054;SHT31;53960;51.826;5.850;2023-06-05T14:58:22;24.22;43.96
67054;SHT31;53960;51.826;5.850;2023-06-05T15:00:48;24.13;43.08
67054;SHT31;53960;51.826;5.850;2023-06-05T15:03:13;24.14;42.50
67054;SHT31;53960;51.826;5.850;2023-06-05T15:05:39;24.19;42.10
67054;SHT31;53960;51.826;5.850;2023-06-05T15:08:05;24.29;42.71
67054;SHT31;53960;51.826;5.850;2023-06-05T15:10:31;24.30;42.47
67054;SHT31;53960;51.826;5.850;2023-06-05T15:12:56;24.39;42.74
67054;SHT31;53960;51.826;5.850;2023-06-05T15:15:23;24.41;43.22
67054;SHT31;53960;51.826;5.850;2023-06-05T15:17:49;24.37;43.07
67054;SHT31;53960;51.826;5.850;2023-06-05T15:20:14;24.27;43.83
67054;SHT31;53960;51.826;5.850;2023-06-05T15:22:40;24.29;43.94
67054;SHT31;53960;51.826;5.850;2023-06-05T15:25:05;24.24;43.39
67054;SHT31;53960;51.826;5.850;2023-06-05T15:27:31;24.41;44.50
67054;SHT31;53960;51.826;5.850;2023-06-05T15:29:57;24.30;44.66
67054;SHT31;53960;51.826;5.850;2023-06-05T15:32:22;24.27;44.26
67054;SHT31;53960;51.826;5.850;2023-06-05T15:34:47;24.36;43.98
67054;SHT31;53960;51.826;5.850;2023-06-05T15:37:13;24.41;44.80
67054;SHT31;53960;51.826;5.850;2023-06-05T15:39:41;24.33;44.94
67054;SHT31;53960;51.826;5.850;2023-06-05T15:42:07;24.40;44.39
67054;SHT31;53960;51.826;5.850;2023-06-05T15:44:32;24.47;44.37
67054;SHT31;53960;51.826;5.850;2023-06-05T15:46:57;24.59;44.36
67054;SHT31;53960;51.826;5.850;2023-06-05T15:49:22;24.53;43.91
67054;SHT31;53960;51.826;5.850;2023-06-05T15:51:48;24.60;44.27
67054;SHT31;53960;51.826;5.850;2023-06-05T15:54:13;24.64;43.54
67054;SHT31;53960;51.826;5.850;2023-06-05T15:56:40;24.74;43.07
67054;SHT31;53960;51.826;5.850;2023-06-05T15:59:05;24.64;43.94
67054;SHT31;53960;51.826;5.850;2023-06-05T16:01:30;24.60;44.55
67054;SHT31;53960;51.826;5.850;2023-06-05T16:03:56;24.57;44.14
67054;SHT31;53960;51.826;5.850;2023-06-05T16:06:21;24.59;44.62